Terminal Aerodrome Forecast
Issued by NWS Austin/San Antonio, TX

Home | Current Version | Previous Version | Text Only | Print | Product List | Glossary On
Versions: 1 2 3 4 5 6 7 8 9 10 11 12 13 14 15 16 17 18 19 20
000
FTUS44 KEWX 311700
TAFAUS
TAF
KAUS 311735Z 3118/0124 20004KT P6SM BKN035 BKN200
      TEMPO 3122/3124 P6SM TSRA BKN050CB
     FM010000 35006KT P6SM BKN035 BKN250
     FM010900 36004KT P6SM OVC030
     FM011700 35007KT P6SM BKN035=

USA.gov is the U.S. government's official web portal to all federal, state and local government web resources and services.